sensor_id;sensor_type;location;lat;lon;timestamp;P1;durP1;ratioP1;P2;durP2;ratioP2
52380;SDS011;38310;52.796;6.942;2023-03-01T00:01:25;31.15;;;20.67;;
52380;SDS011;38310;52.796;6.942;2023-03-01T00:03:53;31.08;;;19.15;;
52380;SDS011;38310;52.796;6.942;2023-03-01T00:06:19;28.67;;;19.83;;
52380;SDS011;38310;52.796;6.942;2023-03-01T00:08:46;31.77;;;20.70;;
52380;SDS011;38310;52.796;6.942;2023-03-01T00:11:12;31.65;;;20.95;;
52380;SDS011;38310;52.796;6.942;2023-03-01T00:13:42;34.20;;;21.77;;
52380;SDS011;38310;52.796;6.942;2023-03-01T00:16:11;30.95;;;19.50;;
52380;SDS011;38310;52.796;6.942;2023-03-01T00:18:39;32.22;;;21.23;;
52380;SDS011;38310;52.796;6.942;2023-03-01T00:21:05;29.75;;;20.23;;
52380;SDS011;38310;52.796;6.942;2023-03-01T00:23:31;32.90;;;19.50;;
52380;SDS011;38310;52.796;6.942;2023-03-01T00:25:59;33.30;;;20.45;;
52380;SDS011;38310;52.796;6.942;2023-03-01T00:28:25;28.48;;;19.60;;
52380;SDS011;38310;52.796;6.942;2023-03-01T00:30:50;32.95;;;21.33;;
52380;SDS011;38310;52.796;6.942;2023-03-01T00:33:16;32.20;;;21.00;;
52380;SDS011;38310;52.796;6.942;2023-03-01T00:35:42;31.35;;;21.83;;
52380;SDS011;38310;52.796;6.942;2023-03-01T00:38:08;29.20;;;20.23;;
52380;SDS011;38310;52.796;6.942;2023-03-01T00:40:34;30.25;;;20.63;;
52380;SDS011;38310;52.796;6.942;2023-03-01T00:43:00;29.90;;;18.77;;
52380;SDS011;38310;52.796;6.942;2023-03-01T00:45:27;33.80;;;20.73;;
52380;SDS011;38310;52.796;6.942;2023-03-01T00:47:53;31.45;;;19.85;;
52380;SDS011;38310;52.796;6.942;2023-03-01T00:50:19;32.65;;;19.90;;
52380;SDS011;38310;52.796;6.942;2023-03-01T00:52:45;34.45;;;21.05;;
52380;SDS011;38310;52.796;6.942;2023-03-01T00:55:11;32.28;;;21.38;;
52380;SDS011;38310;52.796;6.942;2023-03-01T00:57:37;36.08;;;21.10;;
52380;SDS011;38310;52.796;6.942;2023-03-01T01:00:04;33.88;;;22.33;;
52380;SDS011;38310;52.796;6.942;2023-03-01T01:02:32;32.50;;;21.23;;
52380;SDS011;38310;52.796;6.942;2023-03-01T01:04:58;33.63;;;22.02;;
52380;SDS011;38310;52.796;6.942;2023-03-01T01:07:24;33.67;;;21.65;;
52380;SDS011;38310;52.796;6.942;2023-03-01T01:09:50;31.38;;;21.65;;
52380;SDS011;38310;52.796;6.942;2023-03-01T01:12:16;30.88;;;20.27;;
52380;SDS011;38310;52.796;6.942;2023-03-01T01:14:41;33.22;;;22.33;;
52380;SDS011;38310;52.796;6.942;2023-03-01T01:17:07;33.70;;;22.85;;
52380;SDS011;38310;52.796;6.942;2023-03-01T01:19:33;33.00;;;22.67;;
52380;SDS011;38310;52.796;6.942;2023-03-01T01:21:59;34.60;;;22.83;;
52380;SDS011;38310;52.796;6.942;2023-03-01T01:24:24;33.45;;;20.75;;
52380;SDS011;38310;52.796;6.942;2023-03-01T01:26:50;32.75;;;20.80;;
52380;SDS011;38310;52.796;6.942;2023-03-01T01:29:16;30.58;;;21.10;;
52380;SDS011;38310;52.796;6.942;2023-03-01T01:31:42;29.20;;;20.17;;
52380;SDS011;38310;52.796;6.942;2023-03-01T01:34:12;32.75;;;21.58;;
52380;SDS011;38310;52.796;6.942;2023-03-01T01:36:40;33.28;;;21.13;;
52380;SDS011;38310;52.796;6.942;2023-03-01T01:39:06;33.17;;;22.17;;
52380;SDS011;38310;52.796;6.942;2023-03-01T01:41:32;33.95;;;21.75;;
52380;SDS011;38310;52.796;6.942;2023-03-01T01:47:00;33.50;;;22.70;;
52380;SDS011;38310;52.796;6.942;2023-03-01T01:49:35;36.53;;;22.85;;
52380;SDS011;38310;52.796;6.942;2023-03-01T01:52:24;30.23;;;20.75;;
52380;SDS011;38310;52.796;6.942;2023-03-01T01:55:08;34.13;;;21.60;;
52380;SDS011;38310;52.796;6.942;2023-03-01T01:57:47;35.80;;;22.20;;
52380;SDS011;38310;52.796;6.942;2023-03-01T02:00:17;34.38;;;21.98;;
52380;SDS011;38310;52.796;6.942;2023-03-01T02:02:45;31.75;;;20.38;;
52380;SDS011;38310;52.796;6.942;2023-03-01T02:07:47;31.05;;;20.13;;
52380;SDS011;38310;52.796;6.942;2023-03-01T02:10:14;29.88;;;20.10;;
52380;SDS011;38310;52.796;6.942;2023-03-01T02:12:40;31.63;;;19.65;;
52380;SDS011;38310;52.796;6.942;2023-03-01T02:15:08;30.63;;;21.35;;
52380;SDS011;38310;52.796;6.942;2023-03-01T02:17:43;35.13;;;21.85;;
52380;SDS011;38310;52.796;6.942;2023-03-01T02:22:55;35.88;;;22.40;;
52380;SDS011;38310;52.796;6.942;2023-03-01T02:28:33;33.20;;;21.58;;
52380;SDS011;38310;52.796;6.942;2023-03-01T02:31:07;33.20;;;21.38;;
52380;SDS011;38310;52.796;6.942;2023-03-01T02:33:53;27.02;;;19.83;;
52380;SDS011;38310;52.796;6.942;2023-03-01T02:36:21;31.27;;;20.27;;
52380;SDS011;38310;52.796;6.942;2023-03-01T02:38:55;33.03;;;22.05;;
52380;SDS011;38310;52.796;6.942;2023-03-01T02:41:23;32.47;;;20.98;;
52380;SDS011;38310;52.796;6.942;2023-03-01T02:43:52;32.75;;;21.45;;
52380;SDS011;38310;52.796;6.942;2023-03-01T02:46:19;33.60;;;21.20;;
52380;SDS011;38310;52.796;6.942;2023-03-01T02:48:48;33.03;;;20.60;;
52380;SDS011;38310;52.796;6.942;2023-03-01T02:53:56;30.85;;;19.60;;
52380;SDS011;38310;52.796;6.942;2023-03-01T02:56:24;29.45;;;21.13;;
52380;SDS011;38310;52.796;6.942;2023-03-01T02:58:50;31.13;;;21.05;;
52380;SDS011;38310;52.796;6.942;2023-03-01T03:01:18;33.00;;;21.73;;
52380;SDS011;38310;52.796;6.942;2023-03-01T03:03:44;32.13;;;19.85;;
52380;SDS011;38310;52.796;6.942;2023-03-01T03:06:10;33.22;;;20.25;;
52380;SDS011;38310;52.796;6.942;2023-03-01T03:08:35;30.67;;;20.45;;
52380;SDS011;38310;52.796;6.942;2023-03-01T03:11:01;34.50;;;21.17;;
52380;SDS011;38310;52.796;6.942;2023-03-01T03:13:27;32.78;;;20.65;;
52380;SDS011;38310;52.796;6.942;2023-03-01T03:15:56;31.80;;;19.73;;
52380;SDS011;38310;52.796;6.942;2023-03-01T03:18:22;31.13;;;20.25;;
52380;SDS011;38310;52.796;6.942;2023-03-01T03:20:51;31.38;;;21.90;;
52380;SDS011;38310;52.796;6.942;2023-03-01T03:23:18;32.42;;;20.77;;
52380;SDS011;38310;52.796;6.942;2023-03-01T03:25:47;29.60;;;18.73;;
52380;SDS011;38310;52.796;6.942;2023-03-01T03:28:14;29.33;;;19.25;;
52380;SDS011;38310;52.796;6.942;2023-03-01T03:30:41;31.73;;;21.83;;
52380;SDS011;38310;52.796;6.942;2023-03-01T03:33:08;28.13;;;19.60;;
52380;SDS011;38310;52.796;6.942;2023-03-01T03:35:39;29.35;;;20.95;;
52380;SDS011;38310;52.796;6.942;2023-03-01T03:38:08;31.77;;;21.48;;
52380;SDS011;38310;52.796;6.942;2023-03-01T03:40:42;30.15;;;21.50;;
52380;SDS011;38310;52.796;6.942;2023-03-01T03:43:13;29.25;;;20.15;;
52380;SDS011;38310;52.796;6.942;2023-03-01T03:45:43;33.95;;;20.92;;
52380;SDS011;38310;52.796;6.942;2023-03-01T03:48:10;32.47;;;18.98;;
52380;SDS011;38310;52.796;6.942;2023-03-01T03:50:36;29.23;;;19.30;;
52380;SDS011;38310;52.796;6.942;2023-03-01T03:53:05;31.45;;;20.58;;
52380;SDS011;38310;52.796;6.942;2023-03-01T03:55:32;29.27;;;19.95;;
52380;SDS011;38310;52.796;6.942;2023-03-01T03:57:59;30.23;;;19.92;;
52380;SDS011;38310;52.796;6.942;2023-03-01T04:00:31;31.60;;;20.63;;
52380;SDS011;38310;52.796;6.942;2023-03-01T04:02:58;35.97;;;19.58;;
52380;SDS011;38310;52.796;6.942;2023-03-01T04:05:24;32.38;;;20.73;;
52380;SDS011;38310;52.796;6.942;2023-03-01T04:07:50;27.13;;;18.30;;
52380;SDS011;38310;52.796;6.942;2023-03-01T04:10:26;32.42;;;20.02;;
52380;SDS011;38310;52.796;6.942;2023-03-01T04:12:53;33.28;;;20.38;;
52380;SDS011;38310;52.796;6.942;2023-03-01T04:15:21;32.38;;;22.05;;
52380;SDS011;38310;52.796;6.942;2023-03-01T04:17:49;36.30;;;21.48;;
52380;SDS011;38310;52.796;6.942;2023-03-01T04:20:26;37.15;;;21.33;;
52380;SDS011;38310;52.796;6.942;2023-03-01T04:25:24;29.75;;;19.98;;
52380;SDS011;38310;52.796;6.942;2023-03-01T04:27:50;34.95;;;21.02;;
52380;SDS011;38310;52.796;6.942;2023-03-01T04:30:16;27.73;;;18.13;;
52380;SDS011;38310;52.796;6.942;2023-03-01T04:32:42;32.35;;;19.42;;
52380;SDS011;38310;52.796;6.942;2023-03-01T04:35:08;32.00;;;21.52;;
52380;SDS011;38310;52.796;6.942;2023-03-01T04:37:34;29.33;;;19.80;;
52380;SDS011;38310;52.796;6.942;2023-03-01T04:40:00;30.35;;;20.23;;
52380;SDS011;38310;52.796;6.942;2023-03-01T04:42:37;31.20;;;19.35;;
52380;SDS011;38310;52.796;6.942;2023-03-01T04:45:03;35.03;;;20.58;;
52380;SDS011;38310;52.796;6.942;2023-03-01T04:47:38;30.48;;;19.77;;
52380;SDS011;38310;52.796;6.942;2023-03-01T04:50:05;26.83;;;18.33;;
52380;SDS011;38310;52.796;6.942;2023-03-01T04:52:31;34.22;;;23.05;;
52380;SDS011;38310;52.796;6.942;2023-03-01T04:54:57;32.28;;;21.85;;
52380;SDS011;38310;52.796;6.942;2023-03-01T04:57:22;29.35;;;19.25;;
52380;SDS011;38310;52.796;6.942;2023-03-01T04:59:48;32.72;;;19.48;;
52380;SDS011;38310;52.796;6.942;2023-03-01T05:02:14;30.67;;;19.95;;
52380;SDS011;38310;52.796;6.942;2023-03-01T05:04:39;29.55;;;19.90;;
52380;SDS011;38310;52.796;6.942;2023-03-01T05:07:05;30.27;;;19.52;;
52380;SDS011;38310;52.796;6.942;2023-03-01T05:09:31;29.15;;;20.83;;
52380;SDS011;38310;52.796;6.942;2023-03-01T05:11:57;36.22;;;22.08;;
52380;SDS011;38310;52.796;6.942;2023-03-01T05:14:22;33.28;;;20.65;;
52380;SDS011;38310;52.796;6.942;2023-03-01T05:16:48;28.90;;;19.08;;
52380;SDS011;38310;52.796;6.942;2023-03-01T05:19:14;29.35;;;20.42;;
52380;SDS011;38310;52.796;6.942;2023-03-01T05:21:47;29.08;;;19.80;;
52380;SDS011;38310;52.796;6.942;2023-03-01T05:24:30;32.25;;;20.23;;
52380;SDS011;38310;52.796;6.942;2023-03-01T05:26:57;30.88;;;19.33;;
52380;SDS011;38310;52.796;6.942;2023-03-01T05:29:24;30.20;;;20.63;;
52380;SDS011;38310;52.796;6.942;2023-03-01T05:31:52;31.73;;;20.10;;
52380;SDS011;38310;52.796;6.942;2023-03-01T05:34:35;28.80;;;18.00;;
52380;SDS011;38310;52.796;6.942;2023-03-01T05:37:02;31.92;;;20.05;;
52380;SDS011;38310;52.796;6.942;2023-03-01T05:39:29;33.97;;;19.55;;
52380;SDS011;38310;52.796;6.942;2023-03-01T05:41:55;31.55;;;21.50;;
52380;SDS011;38310;52.796;6.942;2023-03-01T05:44:23;29.70;;;20.25;;
52380;SDS011;38310;52.796;6.942;2023-03-01T05:46:50;29.08;;;19.70;;
52380;SDS011;38310;52.796;6.942;2023-03-01T05:49:16;33.97;;;20.30;;
52380;SDS011;38310;52.796;6.942;2023-03-01T05:51:46;26.15;;;18.63;;
52380;SDS011;38310;52.796;6.942;2023-03-01T05:54:14;30.90;;;20.70;;
52380;SDS011;38310;52.796;6.942;2023-03-01T05:56:40;31.85;;;20.90;;
52380;SDS011;38310;52.796;6.942;2023-03-01T05:59:06;37.05;;;21.55;;
52380;SDS011;38310;52.796;6.942;2023-03-01T06:01:32;36.08;;;21.48;;
52380;SDS011;38310;52.796;6.942;2023-03-01T06:03:58;35.22;;;22.42;;
52380;SDS011;38310;52.796;6.942;2023-03-01T06:06:24;31.70;;;21.42;;
52380;SDS011;38310;52.796;6.942;2023-03-01T06:08:50;31.23;;;19.67;;
52380;SDS011;38310;52.796;6.942;2023-03-01T06:11:17;33.65;;;21.60;;
52380;SDS011;38310;52.796;6.942;2023-03-01T06:13:43;35.78;;;21.23;;
52380;SDS011;38310;52.796;6.942;2023-03-01T06:16:09;30.00;;;18.83;;
52380;SDS011;38310;52.796;6.942;2023-03-01T06:18:36;31.70;;;20.52;;
52380;SDS011;38310;52.796;6.942;2023-03-01T06:21:02;31.33;;;20.38;;
52380;SDS011;38310;52.796;6.942;2023-03-01T06:23:29;30.92;;;20.00;;
52380;SDS011;38310;52.796;6.942;2023-03-01T06:25:55;33.42;;;22.80;;
52380;SDS011;38310;52.796;6.942;2023-03-01T06:28:20;34.00;;;22.38;;
52380;SDS011;38310;52.796;6.942;2023-03-01T06:30:46;30.05;;;19.58;;
52380;SDS011;38310;52.796;6.942;2023-03-01T06:33:12;32.15;;;21.27;;
52380;SDS011;38310;52.796;6.942;2023-03-01T06:35:38;29.90;;;18.77;;
52380;SDS011;38310;52.796;6.942;2023-03-01T06:38:04;30.92;;;20.48;;
52380;SDS011;38310;52.796;6.942;2023-03-01T06:40:30;28.38;;;20.15;;
52380;SDS011;38310;52.796;6.942;2023-03-01T06:42:56;31.85;;;21.55;;
52380;SDS011;38310;52.796;6.942;2023-03-01T06:45:22;33.42;;;20.33;;
52380;SDS011;38310;52.796;6.942;2023-03-01T06:47:48;32.08;;;20.27;;
52380;SDS011;38310;52.796;6.942;2023-03-01T06:50:14;29.85;;;20.55;;
52380;SDS011;38310;52.796;6.942;2023-03-01T06:52:41;31.90;;;20.35;;
52380;SDS011;38310;52.796;6.942;2023-03-01T06:55:09;33.88;;;20.83;;
52380;SDS011;38310;52.796;6.942;2023-03-01T06:57:35;33.58;;;20.90;;
52380;SDS011;38310;52.796;6.942;2023-03-01T07:00:01;33.35;;;19.85;;
52380;SDS011;38310;52.796;6.942;2023-03-01T07:02:27;30.50;;;20.13;;
52380;SDS011;38310;52.796;6.942;2023-03-01T07:04:53;28.40;;;20.67;;
52380;SDS011;38310;52.796;6.942;2023-03-01T07:07:19;28.73;;;20.33;;
52380;SDS011;38310;52.796;6.942;2023-03-01T07:09:45;30.42;;;20.92;;
52380;SDS011;38310;52.796;6.942;2023-03-01T07:12:11;35.67;;;21.77;;
52380;SDS011;38310;52.796;6.942;2023-03-01T07:14:37;32.28;;;20.98;;
52380;SDS011;38310;52.796;6.942;2023-03-01T07:17:03;32.00;;;21.83;;
52380;SDS011;38310;52.796;6.942;2023-03-01T07:19:29;31.98;;;21.08;;
52380;SDS011;38310;52.796;6.942;2023-03-01T07:21:54;34.10;;;22.88;;
52380;SDS011;38310;52.796;6.942;2023-03-01T07:24:21;38.35;;;23.10;;
52380;SDS011;38310;52.796;6.942;2023-03-01T07:26:50;34.28;;;22.80;;
52380;SDS011;38310;52.796;6.942;2023-03-01T07:29:17;35.92;;;23.48;;
52380;SDS011;38310;52.796;6.942;2023-03-01T07:31:43;33.08;;;22.73;;
52380;SDS011;38310;52.796;6.942;2023-03-01T07:34:09;41.83;;;26.58;;
52380;SDS011;38310;52.796;6.942;2023-03-01T07:36:35;42.70;;;23.92;;
52380;SDS011;38310;52.796;6.942;2023-03-01T07:39:02;40.58;;;24.52;;
52380;SDS011;38310;52.796;6.942;2023-03-01T07:41:28;30.95;;;23.38;;
52380;SDS011;38310;52.796;6.942;2023-03-01T07:43:54;40.05;;;24.80;;
52380;SDS011;38310;52.796;6.942;2023-03-01T07:46:20;35.33;;;25.70;;
52380;SDS011;38310;52.796;6.942;2023-03-01T07:48:46;44.78;;;27.58;;
52380;SDS011;38310;52.796;6.942;2023-03-01T07:51:12;47.10;;;30.20;;
52380;SDS011;38310;52.796;6.942;2023-03-01T07:53:38;46.45;;;30.92;;
52380;SDS011;38310;52.796;6.942;2023-03-01T07:56:04;62.72;;;35.17;;
52380;SDS011;38310;52.796;6.942;2023-03-01T07:58:30;45.20;;;31.08;;
52380;SDS011;38310;52.796;6.942;2023-03-01T08:00:56;46.70;;;30.85;;
52380;SDS011;38310;52.796;6.942;2023-03-01T08:03:26;45.85;;;30.65;;
52380;SDS011;38310;52.796;6.942;2023-03-01T08:05:51;48.17;;;32.28;;
52380;SDS011;38310;52.796;6.942;2023-03-01T08:08:17;54.40;;;35.42;;
52380;SDS011;38310;52.796;6.942;2023-03-01T08:10:43;46.58;;;32.05;;
52380;SDS011;38310;52.796;6.942;2023-03-01T08:13:08;41.95;;;30.02;;
52380;SDS011;38310;52.796;6.942;2023-03-01T08:15:34;48.72;;;31.88;;
52380;SDS011;38310;52.796;6.942;2023-03-01T08:18:00;46.92;;;33.65;;
52380;SDS011;38310;52.796;6.942;2023-03-01T08:20:25;45.25;;;32.35;;
52380;SDS011;38310;52.796;6.942;2023-03-01T08:22:51;50.20;;;31.95;;
52380;SDS011;38310;52.796;6.942;2023-03-01T08:25:17;49.92;;;34.00;;
52380;SDS011;38310;52.796;6.942;2023-03-01T08:27:43;49.00;;;34.00;;
52380;SDS011;38310;52.796;6.942;2023-03-01T08:30:09;51.80;;;34.42;;
52380;SDS011;38310;52.796;6.942;2023-03-01T08:32:36;47.88;;;31.92;;
52380;SDS011;38310;52.796;6.942;2023-03-01T08:35:03;50.85;;;34.88;;
52380;SDS011;38310;52.796;6.942;2023-03-01T08:37:29;43.25;;;33.35;;
52380;SDS011;38310;52.796;6.942;2023-03-01T08:39:58;42.42;;;31.25;;
52380;SDS011;38310;52.796;6.942;2023-03-01T08:42:24;40.20;;;31.75;;
52380;SDS011;38310;52.796;6.942;2023-03-01T08:44:51;39.40;;;30.10;;
52380;SDS011;38310;52.796;6.942;2023-03-01T08:47:16;53.42;;;34.40;;
52380;SDS011;38310;52.796;6.942;2023-03-01T08:49:42;39.63;;;29.52;;
52380;SDS011;38310;52.796;6.942;2023-03-01T08:52:08;43.47;;;30.58;;
52380;SDS011;38310;52.796;6.942;2023-03-01T08:54:33;42.50;;;28.75;;
52380;SDS011;38310;52.796;6.942;2023-03-01T08:57:01;41.42;;;30.85;;
52380;SDS011;38310;52.796;6.942;2023-03-01T08:59:27;45.70;;;31.20;;
52380;SDS011;38310;52.796;6.942;2023-03-01T09:01:54;42.65;;;31.85;;
52380;SDS011;38310;52.796;6.942;2023-03-01T09:04:20;42.90;;;31.25;;
52380;SDS011;38310;52.796;6.942;2023-03-01T09:06:46;40.78;;;29.02;;
52380;SDS011;38310;52.796;6.942;2023-03-01T09:09:13;32.80;;;24.67;;
52380;SDS011;38310;52.796;6.942;2023-03-01T09:11:42;31.90;;;24.42;;
52380;SDS011;38310;52.796;6.942;2023-03-01T09:14:10;29.85;;;22.38;;
52380;SDS011;38310;52.796;6.942;2023-03-01T09:16:37;31.95;;;24.27;;
52380;SDS011;38310;52.796;6.942;2023-03-01T09:19:03;29.63;;;23.10;;
52380;SDS011;38310;52.796;6.942;2023-03-01T09:21:29;30.98;;;23.13;;
52380;SDS011;38310;52.796;6.942;2023-03-01T09:23:55;28.25;;;23.67;;
52380;SDS011;38310;52.796;6.942;2023-03-01T09:26:22;29.42;;;22.50;;
52380;SDS011;38310;52.796;6.942;2023-03-01T09:28:48;29.63;;;21.98;;
52380;SDS011;38310;52.796;6.942;2023-03-01T09:31:16;29.30;;;21.40;;
52380;SDS011;38310;52.796;6.942;2023-03-01T09:33:45;22.80;;;18.38;;
52380;SDS011;38310;52.796;6.942;2023-03-01T09:36:17;28.63;;;21.63;;
52380;SDS011;38310;52.796;6.942;2023-03-01T09:38:45;24.40;;;19.00;;
52380;SDS011;38310;52.796;6.942;2023-03-01T09:47:05;20.65;;;16.05;;
52380;SDS011;38310;52.796;6.942;2023-03-01T09:49:40;22.77;;;16.67;;
52380;SDS011;38310;52.796;6.942;2023-03-01T09:55:01;20.65;;;15.88;;
52380;SDS011;38310;52.796;6.942;2023-03-01T09:57:36;14.48;;;10.00;;
52380;SDS011;38310;52.796;6.942;2023-03-01T10:00:20;12.23;;;9.80;;
52380;SDS011;38310;52.796;6.942;2023-03-01T10:05:41;13.50;;;11.07;;
52380;SDS011;38310;52.796;6.942;2023-03-01T10:11:05;10.70;;;7.78;;
52380;SDS011;38310;52.796;6.942;2023-03-01T10:13:50;11.25;;;8.75;;
52380;SDS011;38310;52.796;6.942;2023-03-01T10:16:40;13.73;;;8.88;;
52380;SDS011;38310;52.796;6.942;2023-03-01T10:20:05;11.15;;;9.18;;
52380;SDS011;38310;52.796;6.942;2023-03-01T10:22:17;12.98;;;9.93;;
52380;SDS011;38310;52.796;6.942;2023-03-01T10:24:49;11.82;;;10.25;;
52380;SDS011;38310;52.796;6.942;2023-03-01T10:27:24;10.60;;;7.07;;
52380;SDS011;38310;52.796;6.942;2023-03-01T10:32:44;8.90;;;6.70;;
52380;SDS011;38310;52.796;6.942;2023-03-01T10:35:24;8.63;;;7.13;;
52380;SDS011;38310;52.796;6.942;2023-03-01T10:38:02;9.23;;;7.70;;
52380;SDS011;38310;52.796;6.942;2023-03-01T10:40:31;10.10;;;7.22;;
52380;SDS011;38310;52.796;6.942;2023-03-01T10:42:58;8.40;;;6.38;;
52380;SDS011;38310;52.796;6.942;2023-03-01T10:45:32;11.48;;;6.20;;
52380;SDS011;38310;52.796;6.942;2023-03-01T10:48:03;7.30;;;5.85;;
52380;SDS011;38310;52.796;6.942;2023-03-01T10:50:40;8.10;;;6.20;;
52380;SDS011;38310;52.796;6.942;2023-03-01T10:53:56;10.35;;;6.60;;
52380;SDS011;38310;52.796;6.942;2023-03-01T10:56:14;7.85;;;5.88;;
52380;SDS011;38310;52.796;6.942;2023-03-01T10:59:03;8.30;;;6.00;;
52380;SDS011;38310;52.796;6.942;2023-03-01T11:06:32;9.75;;;6.50;;
52380;SDS011;38310;52.796;6.942;2023-03-01T11:09:21;8.30;;;6.88;;
52380;SDS011;38310;52.796;6.942;2023-03-01T11:11:52;8.80;;;6.38;;
52380;SDS011;38310;52.796;6.942;2023-03-01T11:14:23;7.72;;;6.32;;
52380;SDS011;38310;52.796;6.942;2023-03-01T11:16:57;7.50;;;5.65;;
52380;SDS011;38310;52.796;6.942;2023-03-01T11:19:25;7.53;;;5.85;;
52380;SDS011;38310;52.796;6.942;2023-03-01T11:21:55;8.57;;;6.07;;
52380;SDS011;38310;52.796;6.942;2023-03-01T11:24:33;8.57;;;5.95;;
52380;SDS011;38310;52.796;6.942;2023-03-01T11:27:10;8.65;;;6.07;;
52380;SDS011;38310;52.796;6.942;2023-03-01T11:29:42;10.80;;;6.93;;
52380;SDS011;38310;52.796;6.942;2023-03-01T11:32:16;9.93;;;6.68;;
52380;SDS011;38310;52.796;6.942;2023-03-01T11:37:22;9.30;;;6.63;;
52380;SDS011;38310;52.796;6.942;2023-03-01T11:39:59;11.15;;;7.00;;
52380;SDS011;38310;52.796;6.942;2023-03-01T11:42:42;8.95;;;6.63;;
52380;SDS011;38310;52.796;6.942;2023-03-01T11:45:26;9.35;;;6.88;;
52380;SDS011;38310;52.796;6.942;2023-03-01T11:50:47;13.65;;;7.35;;
52380;SDS011;38310;52.796;6.942;2023-03-01T12:01:37;9.55;;;6.50;;
52380;SDS011;38310;52.796;6.942;2023-03-01T12:06:57;8.52;;;6.05;;
52380;SDS011;38310;52.796;6.942;2023-03-01T12:20:38;16.75;;;6.82;;
52380;SDS011;38310;52.796;6.942;2023-03-01T12:31:16;9.77;;;6.07;;
52380;SDS011;38310;52.796;6.942;2023-03-01T12:42:30;9.27;;;6.05;;
52380;SDS011;38310;52.796;6.942;2023-03-01T12:45:05;8.93;;;6.88;;
52380;SDS011;38310;52.796;6.942;2023-03-01T12:51:06;12.40;;;6.82;;
52380;SDS011;38310;52.796;6.942;2023-03-01T12:53:43;9.25;;;6.68;;
52380;SDS011;38310;52.796;6.942;2023-03-01T12:56:14;10.35;;;6.72;;
52380;SDS011;38310;52.796;6.942;2023-03-01T13:01:36;10.40;;;6.18;;
52380;SDS011;38310;52.796;6.942;2023-03-01T13:09:41;10.02;;;7.18;;
52380;SDS011;38310;52.796;6.942;2023-03-01T13:12:49;10.70;;;7.03;;
52380;SDS011;38310;52.796;6.942;2023-03-01T13:20:24;15.20;;;8.27;;
52380;SDS011;38310;52.796;6.942;2023-03-01T13:36:11;11.63;;;7.90;;
52380;SDS011;38310;52.796;6.942;2023-03-01T13:39:26;12.27;;;8.07;;
52380;SDS011;38310;52.796;6.942;2023-03-01T13:41:57;13.55;;;8.60;;
52380;SDS011;38310;52.796;6.942;2023-03-01T13:44:37;14.13;;;8.98;;
52380;SDS011;38310;52.796;6.942;2023-03-01T13:49:36;11.95;;;8.05;;
52380;SDS011;38310;52.796;6.942;2023-03-01T13:52:21;15.13;;;8.35;;
52380;SDS011;38310;52.796;6.942;2023-03-01T13:55:10;13.23;;;8.40;;
52380;SDS011;38310;52.796;6.942;2023-03-01T13:57:40;12.38;;;8.10;;
52380;SDS011;38310;52.796;6.942;2023-03-01T14:05:41;13.07;;;8.65;;
52380;SDS011;38310;52.796;6.942;2023-03-01T14:08:20;12.75;;;9.23;;
52380;SDS011;38310;52.796;6.942;2023-03-01T14:10:51;13.05;;;8.13;;
52380;SDS011;38310;52.796;6.942;2023-03-01T14:16:33;13.18;;;9.05;;
52380;SDS011;38310;52.796;6.942;2023-03-01T14:19:02;13.55;;;8.80;;
52380;SDS011;38310;52.796;6.942;2023-03-01T14:21:43;14.00;;;9.75;;
52380;SDS011;38310;52.796;6.942;2023-03-01T14:24:22;13.15;;;9.13;;
52380;SDS011;38310;52.796;6.942;2023-03-01T14:26:49;11.60;;;8.95;;
52380;SDS011;38310;52.796;6.942;2023-03-01T14:29:25;13.80;;;9.82;;
52380;SDS011;38310;52.796;6.942;2023-03-01T14:32:08;13.65;;;9.13;;
52380;SDS011;38310;52.796;6.942;2023-03-01T14:34:44;13.27;;;9.35;;
52380;SDS011;38310;52.796;6.942;2023-03-01T14:37:33;13.05;;;9.05;;
52380;SDS011;38310;52.796;6.942;2023-03-01T14:39:58;14.32;;;9.73;;
52380;SDS011;38310;52.796;6.942;2023-03-01T14:42:30;13.70;;;9.02;;
52380;SDS011;38310;52.796;6.942;2023-03-01T14:45:01;15.18;;;9.15;;
52380;SDS011;38310;52.796;6.942;2023-03-01T14:47:29;13.13;;;8.95;;
52380;SDS011;38310;52.796;6.942;2023-03-01T14:52:33;13.10;;;9.57;;
52380;SDS011;38310;52.796;6.942;2023-03-01T14:55:02;15.57;;;9.57;;
52380;SDS011;38310;52.796;6.942;2023-03-01T14:57:32;13.98;;;8.93;;
52380;SDS011;38310;52.796;6.942;2023-03-01T14:59:58;13.43;;;9.18;;
52380;SDS011;38310;52.796;6.942;2023-03-01T15:02:30;13.45;;;8.63;;
52380;SDS011;38310;52.796;6.942;2023-03-01T15:04:58;14.32;;;8.98;;
52380;SDS011;38310;52.796;6.942;2023-03-01T15:07:31;11.65;;;8.80;;
52380;SDS011;38310;52.796;6.942;2023-03-01T15:10:00;12.07;;;8.43;;
52380;SDS011;38310;52.796;6.942;2023-03-01T15:14:56;12.02;;;8.57;;
52380;SDS011;38310;52.796;6.942;2023-03-01T15:17:26;11.93;;;8.65;;
52380;SDS011;38310;52.796;6.942;2023-03-01T15:19:59;13.05;;;9.77;;
52380;SDS011;38310;52.796;6.942;2023-03-01T15:22:26;11.75;;;8.70;;
52380;SDS011;38310;52.796;6.942;2023-03-01T15:24:52;16.40;;;9.98;;
52380;SDS011;38310;52.796;6.942;2023-03-01T15:27:20;12.18;;;9.00;;
52380;SDS011;38310;52.796;6.942;2023-03-01T15:29:53;12.73;;;9.30;;
52380;SDS011;38310;52.796;6.942;2023-03-01T15:32:25;12.82;;;9.45;;
52380;SDS011;38310;52.796;6.942;2023-03-01T15:34:57;15.07;;;10.48;;
52380;SDS011;38310;52.796;6.942;2023-03-01T15:43:00;15.95;;;11.23;;
52380;SDS011;38310;52.796;6.942;2023-03-01T15:45:29;16.08;;;11.98;;
52380;SDS011;38310;52.796;6.942;2023-03-01T15:48:03;15.38;;;11.35;;
52380;SDS011;38310;52.796;6.942;2023-03-01T15:50:55;15.27;;;11.57;;
52380;SDS011;38310;52.796;6.942;2023-03-01T15:53:23;15.07;;;11.65;;
52380;SDS011;38310;52.796;6.942;2023-03-01T15:55:49;17.58;;;12.65;;
52380;SDS011;38310;52.796;6.942;2023-03-01T16:00:43;14.95;;;12.10;;
52380;SDS011;38310;52.796;6.942;2023-03-01T16:03:12;15.00;;;12.15;;
52380;SDS011;38310;52.796;6.942;2023-03-01T16:05:39;15.55;;;11.85;;
52380;SDS011;38310;52.796;6.942;2023-03-01T16:08:05;15.30;;;11.93;;
52380;SDS011;38310;52.796;6.942;2023-03-01T16:10:32;13.52;;;11.35;;
52380;SDS011;38310;52.796;6.942;2023-03-01T16:12:58;14.25;;;11.30;;
52380;SDS011;38310;52.796;6.942;2023-03-01T16:15:25;13.75;;;10.60;;
52380;SDS011;38310;52.796;6.942;2023-03-01T16:17:54;13.70;;;10.75;;
52380;SDS011;38310;52.796;6.942;2023-03-01T16:20:20;16.95;;;11.70;;
52380;SDS011;38310;52.796;6.942;2023-03-01T16:22:46;14.13;;;10.70;;
52380;SDS011;38310;52.796;6.942;2023-03-01T16:25:13;15.88;;;10.85;;
52380;SDS011;38310;52.796;6.942;2023-03-01T16:27:44;13.52;;;10.75;;
52380;SDS011;38310;52.796;6.942;2023-03-01T16:30:12;14.20;;;11.00;;
52380;SDS011;38310;52.796;6.942;2023-03-01T16:32:42;13.57;;;11.05;;
52380;SDS011;38310;52.796;6.942;2023-03-01T16:35:10;13.20;;;10.20;;
52380;SDS011;38310;52.796;6.942;2023-03-01T16:37:37;14.82;;;11.00;;
52380;SDS011;38310;52.796;6.942;2023-03-01T16:40:04;15.07;;;11.23;;
52380;SDS011;38310;52.796;6.942;2023-03-01T16:42:34;16.38;;;12.95;;
52380;SDS011;38310;52.796;6.942;2023-03-01T16:45:00;17.25;;;12.27;;
52380;SDS011;38310;52.796;6.942;2023-03-01T16:47:27;15.07;;;12.30;;
52380;SDS011;38310;52.796;6.942;2023-03-01T16:49:53;17.92;;;13.13;;
52380;SDS011;38310;52.796;6.942;2023-03-01T16:52:19;17.35;;;12.27;;
52380;SDS011;38310;52.796;6.942;2023-03-01T16:54:45;18.15;;;12.63;;
52380;SDS011;38310;52.796;6.942;2023-03-01T16:57:11;17.27;;;13.68;;